sensor_id;sensor_type;location;lat;lon;timestamp;pressure;altitude;pressure_sealevel;temperature;humidity
70434;BME280;57876;47.792;12.960;2023-02-02T00:00:47;97078.13;;;16.27;38.33
70434;BME280;57876;47.792;12.960;2023-02-02T00:03:11;97088.56;;;16.25;38.35
70434;BME280;57876;47.792;12.960;2023-02-02T00:05:36;97087.78;;;16.25;38.20
70434;BME280;57876;47.792;12.960;2023-02-02T00:08:01;97092.72;;;16.23;38.57
70434;BME280;57876;47.792;12.960;2023-02-02T00:10:25;97093.03;;;16.21;38.28
70434;BME280;57876;47.792;12.960;2023-02-02T00:12:50;97092.22;;;16.21;38.22
70434;BME280;57876;47.792;12.960;2023-02-02T00:15:14;97087.06;;;16.19;38.37
70434;BME280;57876;47.792;12.960;2023-02-02T00:17:38;97084.69;;;16.18;38.72
70434;BME280;57876;47.792;12.960;2023-02-02T00:20:03;97083.03;;;16.17;38.58
70434;BME280;57876;47.792;12.960;2023-02-02T00:22:27;97091.25;;;16.17;38.57
70434;BME280;57876;47.792;12.960;2023-02-02T00:24:52;97090.78;;;16.15;38.71
70434;BME280;57876;47.792;12.960;2023-02-02T00:27:16;97082.88;;;16.13;38.12
70434;BME280;57876;47.792;12.960;2023-02-02T00:29:40;97075.50;;;16.14;38.61
70434;BME280;57876;47.792;12.960;2023-02-02T00:32:05;97079.97;;;16.10;38.58
70434;BME280;57876;47.792;12.960;2023-02-02T00:34:29;97081.59;;;16.11;38.56
70434;BME280;57876;47.792;12.960;2023-02-02T00:36:54;97060.88;;;16.10;38.58
70434;BME280;57876;47.792;12.960;2023-02-02T00:39:23;97053.34;;;16.06;38.58
70434;BME280;57876;47.792;12.960;2023-02-02T00:41:50;97056.06;;;16.06;38.65
70434;BME280;57876;47.792;12.960;2023-02-02T00:44:15;97068.88;;;16.06;38.77
70434;BME280;57876;47.792;12.960;2023-02-02T00:46:58;97067.28;;;16.05;38.60
70434;BME280;57876;47.792;12.960;2023-02-02T00:49:22;97063.25;;;16.02;38.43
70434;BME280;57876;47.792;12.960;2023-02-02T00:51:46;97069.50;;;16.03;38.76
70434;BME280;57876;47.792;12.960;2023-02-02T00:54:11;97075.59;;;16.00;38.64
70434;BME280;57876;47.792;12.960;2023-02-02T00:56:37;97091.66;;;16.01;38.63
70434;BME280;57876;47.792;12.960;2023-02-02T00:59:01;97067.75;;;15.98;38.77
70434;BME280;57876;47.792;12.960;2023-02-02T01:01:26;97066.59;;;15.99;38.65
70434;BME280;57876;47.792;12.960;2023-02-02T01:03:51;97071.56;;;15.97;38.54
70434;BME280;57876;47.792;12.960;2023-02-02T01:06:16;97062.56;;;15.97;38.43
70434;BME280;57876;47.792;12.960;2023-02-02T01:08:41;97074.91;;;15.94;38.45
70434;BME280;57876;47.792;12.960;2023-02-02T01:11:05;97070.25;;;15.95;38.75
70434;BME280;57876;47.792;12.960;2023-02-02T01:13:30;97056.13;;;15.93;38.51
70434;BME280;57876;47.792;12.960;2023-02-02T01:15:56;97064.81;;;15.95;38.67
70434;BME280;57876;47.792;12.960;2023-02-02T01:18:20;97087.25;;;15.92;38.69
70434;BME280;57876;47.792;12.960;2023-02-02T01:20:44;97063.84;;;15.91;38.64
70434;BME280;57876;47.792;12.960;2023-02-02T01:23:09;97081.81;;;15.92;38.90
70434;BME280;57876;47.792;12.960;2023-02-02T01:25:33;97065.75;;;15.90;38.69
70434;BME280;57876;47.792;12.960;2023-02-02T01:28:01;97051.63;;;15.88;38.67
70434;BME280;57876;47.792;12.960;2023-02-02T01:30:25;97070.72;;;15.88;38.84
70434;BME280;57876;47.792;12.960;2023-02-02T01:32:50;97045.69;;;15.86;38.53
70434;BME280;57876;47.792;12.960;2023-02-02T01:35:14;97055.78;;;15.85;38.65
70434;BME280;57876;47.792;12.960;2023-02-02T01:37:38;97062.34;;;15.84;38.37
70434;BME280;57876;47.792;12.960;2023-02-02T01:40:03;97050.63;;;15.84;38.80
70434;BME280;57876;47.792;12.960;2023-02-02T01:42:28;97043.25;;;15.84;38.71
70434;BME280;57876;47.792;12.960;2023-02-02T01:47:36;97018.53;;;15.81;38.73
70434;BME280;57876;47.792;12.960;2023-02-02T01:50:01;97011.94;;;15.82;38.71
70434;BME280;57876;47.792;12.960;2023-02-02T01:52:29;97022.38;;;15.80;38.91
70434;BME280;57876;47.792;12.960;2023-02-02T01:55:00;97007.94;;;15.79;38.50
70434;BME280;57876;47.792;12.960;2023-02-02T01:57:32;97000.06;;;15.78;38.85
70434;BME280;57876;47.792;12.960;2023-02-02T01:59:59;97009.34;;;15.77;38.62
70434;BME280;57876;47.792;12.960;2023-02-02T02:02:26;97010.19;;;15.77;38.47
70434;BME280;57876;47.792;12.960;2023-02-02T02:04:52;96996.84;;;15.76;38.77
70434;BME280;57876;47.792;12.960;2023-02-02T02:07:17;96984.81;;;15.77;38.60
70434;BME280;57876;47.792;12.960;2023-02-02T02:09:42;96994.91;;;15.76;38.97
70434;BME280;57876;47.792;12.960;2023-02-02T02:12:11;96991.41;;;15.76;38.67
70434;BME280;57876;47.792;12.960;2023-02-02T02:14:38;96967.97;;;15.75;38.70
70434;BME280;57876;47.792;12.960;2023-02-02T02:17:35;96980.00;;;15.74;38.89
70434;BME280;57876;47.792;12.960;2023-02-02T02:20:18;96981.13;;;15.73;38.44
70434;BME280;57876;47.792;12.960;2023-02-02T02:30:02;96968.91;;;15.70;38.88
70434;BME280;57876;47.792;12.960;2023-02-02T02:32:24;96965.38;;;15.70;39.10
70434;BME280;57876;47.792;12.960;2023-02-02T02:37:49;96959.41;;;15.68;38.67
70434;BME280;57876;47.792;12.960;2023-02-02T02:42:52;96938.53;;;15.63;38.72
70434;BME280;57876;47.792;12.960;2023-02-02T02:45:19;96981.84;;;15.64;38.82
70434;BME280;57876;47.792;12.960;2023-02-02T02:47:46;96935.63;;;15.59;38.81
70434;BME280;57876;47.792;12.960;2023-02-02T02:50:11;96944.78;;;15.63;38.87
70434;BME280;57876;47.792;12.960;2023-02-02T02:52:37;96927.94;;;15.61;38.88
70434;BME280;57876;47.792;12.960;2023-02-02T02:55:03;96944.31;;;15.61;39.10
70434;BME280;57876;47.792;12.960;2023-02-02T02:57:45;96926.31;;;15.60;38.75
70434;BME280;57876;47.792;12.960;2023-02-02T03:00:37;96930.69;;;15.61;38.70
70434;BME280;57876;47.792;12.960;2023-02-02T03:03:25;96928.75;;;15.62;38.86
70434;BME280;57876;47.792;12.960;2023-02-02T03:06:04;96920.88;;;15.60;38.99
70434;BME280;57876;47.792;12.960;2023-02-02T03:08:39;96950.06;;;15.60;38.95
70434;BME280;57876;47.792;12.960;2023-02-02T03:11:09;96937.88;;;15.57;38.78
70434;BME280;57876;47.792;12.960;2023-02-02T03:13:34;96934.00;;;15.58;38.80
70434;BME280;57876;47.792;12.960;2023-02-02T03:15:59;96951.50;;;15.57;38.91
70434;BME280;57876;47.792;12.960;2023-02-02T03:18:27;96960.47;;;15.58;38.84
70434;BME280;57876;47.792;12.960;2023-02-02T03:20:52;96943.31;;;15.57;38.89
70434;BME280;57876;47.792;12.960;2023-02-02T03:23:16;96955.34;;;15.56;38.82
70434;BME280;57876;47.792;12.960;2023-02-02T03:25:42;96947.16;;;15.56;38.84
70434;BME280;57876;47.792;12.960;2023-02-02T03:28:06;96954.84;;;15.54;38.80
70434;BME280;57876;47.792;12.960;2023-02-02T03:30:31;96954.06;;;15.54;38.99
70434;BME280;57876;47.792;12.960;2023-02-02T03:32:56;96943.16;;;15.54;38.95
70434;BME280;57876;47.792;12.960;2023-02-02T03:35:21;96947.81;;;15.53;38.94
70434;BME280;57876;47.792;12.960;2023-02-02T03:37:46;96969.59;;;15.53;38.89
70434;BME280;57876;47.792;12.960;2023-02-02T03:40:10;96955.47;;;15.51;38.86
70434;BME280;57876;47.792;12.960;2023-02-02T03:42:35;96938.78;;;15.53;38.98
70434;BME280;57876;47.792;12.960;2023-02-02T03:44:59;96960.94;;;15.51;38.77
70434;BME280;57876;47.792;12.960;2023-02-02T03:47:27;96948.41;;;15.50;39.06
70434;BME280;57876;47.792;12.960;2023-02-02T03:49:52;96940.56;;;15.49;38.86
70434;BME280;57876;47.792;12.960;2023-02-02T03:52:16;96956.09;;;15.48;38.83
70434;BME280;57876;47.792;12.960;2023-02-02T03:54:40;96969.75;;;15.48;39.15
70434;BME280;57876;47.792;12.960;2023-02-02T03:57:05;96939.75;;;15.48;39.05
70434;BME280;57876;47.792;12.960;2023-02-02T03:59:29;96951.75;;;15.47;38.98
70434;BME280;57876;47.792;12.960;2023-02-02T04:01:53;96961.56;;;15.48;38.95
70434;BME280;57876;47.792;12.960;2023-02-02T04:04:18;96966.19;;;15.48;39.14
70434;BME280;57876;47.792;12.960;2023-02-02T04:06:42;96971.47;;;15.44;39.17
70434;BME280;57876;47.792;12.960;2023-02-02T04:09:07;96958.34;;;15.46;38.91
70434;BME280;57876;47.792;12.960;2023-02-02T04:11:31;96955.91;;;15.45;38.99
70434;BME280;57876;47.792;12.960;2023-02-02T04:13:56;96953.19;;;15.45;39.05
70434;BME280;57876;47.792;12.960;2023-02-02T04:16:20;96949.34;;;15.46;39.00
70434;BME280;57876;47.792;12.960;2023-02-02T04:18:44;96953.50;;;15.43;39.14
70434;BME280;57876;47.792;12.960;2023-02-02T04:21:09;96967.59;;;15.45;39.15
70434;BME280;57876;47.792;12.960;2023-02-02T04:23:34;96945.63;;;15.41;39.03
70434;BME280;57876;47.792;12.960;2023-02-02T04:25:59;96948.06;;;15.43;39.19
70434;BME280;57876;47.792;12.960;2023-02-02T04:28:23;96958.16;;;15.43;39.06
70434;BME280;57876;47.792;12.960;2023-02-02T04:30:49;96948.34;;;15.41;39.11
70434;BME280;57876;47.792;12.960;2023-02-02T04:33:14;96964.41;;;15.43;39.22
70434;BME280;57876;47.792;12.960;2023-02-02T04:35:38;96946.44;;;15.42;39.04
70434;BME280;57876;47.792;12.960;2023-02-02T04:38:02;96961.19;;;15.41;39.06
70434;BME280;57876;47.792;12.960;2023-02-02T04:40:27;96967.78;;;15.40;38.94
70434;BME280;57876;47.792;12.960;2023-02-02T04:42:51;96955.88;;;15.36;38.99
70434;BME280;57876;47.792;12.960;2023-02-02T04:45:16;96966.13;;;15.39;39.09
70434;BME280;57876;47.792;12.960;2023-02-02T04:47:40;96955.75;;;15.41;39.19
70434;BME280;57876;47.792;12.960;2023-02-02T04:50:05;96961.81;;;15.38;39.15
70434;BME280;57876;47.792;12.960;2023-02-02T04:52:29;96961.81;;;15.38;39.06
70434;BME280;57876;47.792;12.960;2023-02-02T04:54:54;96966.13;;;15.39;39.19
70434;BME280;57876;47.792;12.960;2023-02-02T04:57:18;96972.72;;;15.38;39.01
70434;BME280;57876;47.792;12.960;2023-02-02T04:59:43;96971.09;;;15.37;39.24
70434;BME280;57876;47.792;12.960;2023-02-02T05:02:07;96990.66;;;15.39;39.32
70434;BME280;57876;47.792;12.960;2023-02-02T05:04:32;96973.00;;;15.36;39.40
70434;BME280;57876;47.792;12.960;2023-02-02T05:06:57;96974.66;;;15.37;39.31
70434;BME280;57876;47.792;12.960;2023-02-02T05:09:21;96964.03;;;15.36;39.05
70434;BME280;57876;47.792;12.960;2023-02-02T05:11:45;96956.38;;;15.38;39.19
70434;BME280;57876;47.792;12.960;2023-02-02T05:14:10;96943.84;;;15.37;39.25
70434;BME280;57876;47.792;12.960;2023-02-02T05:16:35;96975.75;;;15.36;39.06
70434;BME280;57876;47.792;12.960;2023-02-02T05:18:59;96973.00;;;15.36;39.12
70434;BME280;57876;47.792;12.960;2023-02-02T05:21:24;96966.28;;;15.34;39.00
70434;BME280;57876;47.792;12.960;2023-02-02T05:23:48;96964.84;;;15.36;39.04
70434;BME280;57876;47.792;12.960;2023-02-02T05:26:30;96986.97;;;15.35;39.42
70434;BME280;57876;47.792;12.960;2023-02-02T05:28:55;96958.09;;;15.34;39.15
70434;BME280;57876;47.792;12.960;2023-02-02T05:31:20;96988.56;;;15.36;39.32
70434;BME280;57876;47.792;12.960;2023-02-02T05:33:44;96971.72;;;15.34;39.28
70434;BME280;57876;47.792;12.960;2023-02-02T05:36:09;97005.22;;;15.34;39.33
70434;BME280;57876;47.792;12.960;2023-02-02T05:38:34;96994.53;;;15.38;39.08
70434;BME280;57876;47.792;12.960;2023-02-02T05:40:58;96997.75;;;15.40;39.10
70434;BME280;57876;47.792;12.960;2023-02-02T05:43:27;97015.88;;;15.45;38.96
70434;BME280;57876;47.792;12.960;2023-02-02T05:45:52;97009.50;;;15.49;39.22
70434;BME280;57876;47.792;12.960;2023-02-02T05:48:17;96994.63;;;15.55;39.04
70434;BME280;57876;47.792;12.960;2023-02-02T05:50:45;96985.50;;;15.60;39.24
70434;BME280;57876;47.792;12.960;2023-02-02T05:53:12;97001.44;;;15.67;38.95
70434;BME280;57876;47.792;12.960;2023-02-02T05:55:37;97022.03;;;15.73;38.89
70434;BME280;57876;47.792;12.960;2023-02-02T05:58:01;96989.47;;;15.76;39.03
70434;BME280;57876;47.792;12.960;2023-02-02T06:00:26;96988.53;;;15.81;39.17
70434;BME280;57876;47.792;12.960;2023-02-02T06:02:50;97005.41;;;15.83;39.16
70434;BME280;57876;47.792;12.960;2023-02-02T06:05:14;97026.59;;;15.86;39.24
70434;BME280;57876;47.792;12.960;2023-02-02T06:07:39;97020.50;;;15.89;38.80
70434;BME280;57876;47.792;12.960;2023-02-02T06:10:04;97005.44;;;15.92;38.87
70434;BME280;57876;47.792;12.960;2023-02-02T06:12:28;97010.59;;;15.93;39.28
70434;BME280;57876;47.792;12.960;2023-02-02T06:14:53;97016.22;;;15.97;39.23
70434;BME280;57876;47.792;12.960;2023-02-02T06:17:17;96995.97;;;15.98;39.03
70434;BME280;57876;47.792;12.960;2023-02-02T06:19:41;97009.81;;;16.01;39.26
70434;BME280;57876;47.792;12.960;2023-02-02T06:22:06;97004.66;;;16.00;39.10
70434;BME280;57876;47.792;12.960;2023-02-02T06:24:30;97025.22;;;16.06;39.01
70434;BME280;57876;47.792;12.960;2023-02-02T06:26:55;97001.16;;;16.08;38.66
70434;BME280;57876;47.792;12.960;2023-02-02T06:29:19;97027.50;;;16.13;39.03
70434;BME280;57876;47.792;12.960;2023-02-02T06:31:43;97011.63;;;16.15;39.18
70434;BME280;57876;47.792;12.960;2023-02-02T06:34:13;97037.94;;;16.19;38.99
70434;BME280;57876;47.792;12.960;2023-02-02T06:36:37;97036.84;;;16.20;38.81
70434;BME280;57876;47.792;12.960;2023-02-02T06:39:02;97036.22;;;16.23;39.05
70434;BME280;57876;47.792;12.960;2023-02-02T06:41:27;97033.19;;;16.25;38.88
70434;BME280;57876;47.792;12.960;2023-02-02T06:43:52;97025.00;;;16.25;39.27
70434;BME280;57876;47.792;12.960;2023-02-02T06:46:16;97048.94;;;16.28;38.93
70434;BME280;57876;47.792;12.960;2023-02-02T06:48:41;97044.56;;;16.27;39.14
70434;BME280;57876;47.792;12.960;2023-02-02T06:51:06;97032.22;;;16.29;38.90
70434;BME280;57876;47.792;12.960;2023-02-02T06:53:31;97043.94;;;16.30;39.02
70434;BME280;57876;47.792;12.960;2023-02-02T06:55:57;97042.19;;;16.34;39.05
70434;BME280;57876;47.792;12.960;2023-02-02T06:58:22;97045.44;;;16.36;39.49
70434;BME280;57876;47.792;12.960;2023-02-02T07:00:46;97057.94;;;16.37;38.93
70434;BME280;57876;47.792;12.960;2023-02-02T07:03:11;97043.19;;;16.38;39.13
70434;BME280;57876;47.792;12.960;2023-02-02T07:05:35;97060.38;;;16.39;39.32
70434;BME280;57876;47.792;12.960;2023-02-02T07:08:00;97057.31;;;16.40;39.18
70434;BME280;57876;47.792;12.960;2023-02-02T07:10:24;97054.91;;;16.39;39.29
70434;BME280;57876;47.792;12.960;2023-02-02T07:12:49;97057.94;;;16.37;39.08
70434;BME280;57876;47.792;12.960;2023-02-02T07:15:13;97069.19;;;16.36;39.52
70434;BME280;57876;47.792;12.960;2023-02-02T07:17:38;97071.09;;;16.35;39.20
70434;BME280;57876;47.792;12.960;2023-02-02T07:20:02;97070.78;;;16.37;39.24
70434;BME280;57876;47.792;12.960;2023-02-02T07:22:27;97067.75;;;16.38;39.41
70434;BME280;57876;47.792;12.960;2023-02-02T07:24:51;97079.13;;;16.40;39.34
70434;BME280;57876;47.792;12.960;2023-02-02T07:27:16;97061.31;;;16.43;39.03
70434;BME280;57876;47.792;12.960;2023-02-02T07:29:40;97064.25;;;16.46;39.39
70434;BME280;57876;47.792;12.960;2023-02-02T07:32:05;97057.66;;;16.47;39.37
70434;BME280;57876;47.792;12.960;2023-02-02T07:34:29;97071.81;;;16.49;39.04
70434;BME280;57876;47.792;12.960;2023-02-02T07:36:54;97075.84;;;16.52;39.38
70434;BME280;57876;47.792;12.960;2023-02-02T07:39:18;97057.34;;;16.49;39.07
70434;BME280;57876;47.792;12.960;2023-02-02T07:41:42;97069.06;;;16.49;39.02
70434;BME280;57876;47.792;12.960;2023-02-02T07:44:12;97100.72;;;16.50;39.23
70434;BME280;57876;47.792;12.960;2023-02-02T07:46:38;97061.03;;;16.53;38.97
70434;BME280;57876;47.792;12.960;2023-02-02T07:49:03;97062.66;;;16.54;39.39
70434;BME280;57876;47.792;12.960;2023-02-02T07:51:27;97065.06;;;16.56;39.19
70434;BME280;57876;47.792;12.960;2023-02-02T07:53:53;97061.22;;;16.57;39.36
70434;BME280;57876;47.792;12.960;2023-02-02T07:56:23;97061.22;;;16.57;39.43
70434;BME280;57876;47.792;12.960;2023-02-02T07:58:50;97081.94;;;16.58;38.92
70434;BME280;57876;47.792;12.960;2023-02-02T08:01:15;97055.13;;;16.60;39.30
70434;BME280;57876;47.792;12.960;2023-02-02T08:03:40;97064.13;;;16.60;39.12
70434;BME280;57876;47.792;12.960;2023-02-02T08:06:12;97046.94;;;16.60;39.26
70434;BME280;57876;47.792;12.960;2023-02-02T08:08:37;97066.84;;;16.60;39.22
70434;BME280;57876;47.792;12.960;2023-02-02T08:11:02;97077.44;;;16.62;39.41
70434;BME280;57876;47.792;12.960;2023-02-02T08:13:26;97068.47;;;16.61;39.00
70434;BME280;57876;47.792;12.960;2023-02-02T08:15:50;97063.50;;;16.63;39.45
70434;BME280;57876;47.792;12.960;2023-02-02T08:18:15;97075.72;;;16.66;39.06
70434;BME280;57876;47.792;12.960;2023-02-02T08:20:40;97071.84;;;16.67;39.01
70434;BME280;57876;47.792;12.960;2023-02-02T08:23:04;97069.44;;;16.65;39.13
70434;BME280;57876;47.792;12.960;2023-02-02T08:25:32;97092.09;;;16.66;39.38
70434;BME280;57876;47.792;12.960;2023-02-02T08:27:56;97092.09;;;16.66;39.40
70434;BME280;57876;47.792;12.960;2023-02-02T08:30:26;97083.41;;;16.64;39.05
70434;BME280;57876;47.792;12.960;2023-02-02T08:32:50;97079.56;;;16.65;39.10
70434;BME280;57876;47.792;12.960;2023-02-02T08:35:15;97073.28;;;16.64;39.01
70434;BME280;57876;47.792;12.960;2023-02-02T08:37:40;97079.56;;;16.65;39.19
70434;BME280;57876;47.792;12.960;2023-02-02T08:40:05;97086.63;;;16.66;39.42
70434;BME280;57876;47.792;12.960;2023-02-02T08:42:29;97098.84;;;16.68;39.44
70434;BME280;57876;47.792;12.960;2023-02-02T08:44:54;97129.69;;;16.69;39.26
70434;BME280;57876;47.792;12.960;2023-02-02T08:47:18;97089.22;;;16.71;39.41
70434;BME280;57876;47.792;12.960;2023-02-02T08:49:42;97088.88;;;16.72;38.81
70434;BME280;57876;47.792;12.960;2023-02-02T08:52:08;97093.25;;;16.73;39.31
70434;BME280;57876;47.792;12.960;2023-02-02T08:54:32;97079.88;;;16.72;39.21
70434;BME280;57876;47.792;12.960;2023-02-02T08:56:56;97106.09;;;16.73;39.06
70434;BME280;57876;47.792;12.960;2023-02-02T08:59:21;97096.28;;;16.72;38.84
70434;BME280;57876;47.792;12.960;2023-02-02T09:01:45;97098.22;;;16.71;39.04
70434;BME280;57876;47.792;12.960;2023-02-02T09:04:13;97118.13;;;16.72;39.21
70434;BME280;57876;47.792;12.960;2023-02-02T09:06:40;97104.16;;;16.73;38.94
70434;BME280;57876;47.792;12.960;2023-02-02T09:09:07;97111.06;;;16.71;38.89
70434;BME280;57876;47.792;12.960;2023-02-02T09:11:32;97107.19;;;16.72;39.18
70434;BME280;57876;47.792;12.960;2023-02-02T09:13:57;97115.91;;;16.74;39.40
70434;BME280;57876;47.792;12.960;2023-02-02T09:16:23;97117.81;;;16.73;38.87
70434;BME280;57876;47.792;12.960;2023-02-02T09:18:47;97125.22;;;16.73;38.98
70434;BME280;57876;47.792;12.960;2023-02-02T09:21:14;97111.88;;;16.71;38.88
70434;BME280;57876;47.792;12.960;2023-02-02T09:23:40;97125.81;;;16.70;38.98
70434;BME280;57876;47.792;12.960;2023-02-02T09:26:23;97121.81;;;16.67;39.37
70434;BME280;57876;47.792;12.960;2023-02-02T09:28:51;97125.34;;;16.68;38.92
70434;BME280;57876;47.792;12.960;2023-02-02T09:31:16;97108.34;;;16.71;39.10
70434;BME280;57876;47.792;12.960;2023-02-02T09:33:41;97132.91;;;16.71;39.09
70434;BME280;57876;47.792;12.960;2023-02-02T09:36:09;97124.22;;;16.69;39.32
70434;BME280;57876;47.792;12.960;2023-02-02T09:38:34;97105.59;;;16.71;38.90
70434;BME280;57876;47.792;12.960;2023-02-02T09:41:00;97114.91;;;16.70;39.26
70434;BME280;57876;47.792;12.960;2023-02-02T09:43:46;97111.72;;;16.68;39.46
70434;BME280;57876;47.792;12.960;2023-02-02T09:49:27;97125.81;;;16.70;38.83
70434;BME280;57876;47.792;12.960;2023-02-02T09:52:00;97131.47;;;16.65;39.21
70434;BME280;57876;47.792;12.960;2023-02-02T09:54:39;97127.44;;;16.62;38.79
70434;BME280;57876;47.792;12.960;2023-02-02T09:57:12;97115.22;;;16.60;38.98
70434;BME280;57876;47.792;12.960;2023-02-02T09:59:40;97138.81;;;16.64;39.02
70434;BME280;57876;47.792;12.960;2023-02-02T10:02:14;97129.81;;;16.64;38.77
70434;BME280;57876;47.792;12.960;2023-02-02T10:04:42;97148.31;;;16.67;39.09
70434;BME280;57876;47.792;12.960;2023-02-02T10:07:36;97138.19;;;16.67;39.22
70434;BME280;57876;47.792;12.960;2023-02-02T10:10:02;97147.69;;;16.70;38.83
70434;BME280;57876;47.792;12.960;2023-02-02T10:12:56;97152.03;;;16.71;39.22
70434;BME280;57876;47.792;12.960;2023-02-02T10:18:18;97149.31;;;16.71;39.01
70434;BME280;57876;47.792;12.960;2023-02-02T10:23:24;97141.41;;;16.69;39.45
70434;BME280;57876;47.792;12.960;2023-02-02T10:31:41;97140.78;;;16.72;39.12
70434;BME280;57876;47.792;12.960;2023-02-02T10:36:52;97165.06;;;16.74;39.17
70434;BME280;57876;47.792;12.960;2023-02-02T10:39:27;97167.19;;;16.77;39.48
70434;BME280;57876;47.792;12.960;2023-02-02T10:44:42;97162.06;;;16.84;39.52
70434;BME280;57876;47.792;12.960;2023-02-02T10:47:15;97153.53;;;16.86;39.33
70434;BME280;57876;47.792;12.960;2023-02-02T10:49:44;97163.19;;;16.83;39.09
70434;BME280;57876;47.792;12.960;2023-02-02T10:57:25;97182.34;;;16.92;39.62
70434;BME280;57876;47.792;12.960;2023-02-02T11:02:43;97175.44;;;16.94;39.51
70434;BME280;57876;47.792;12.960;2023-02-02T11:05:13;97164.53;;;16.94;39.57
70434;BME280;57876;47.792;12.960;2023-02-02T11:08:00;97182.22;;;16.97;39.91
70434;BME280;57876;47.792;12.960;2023-02-02T11:10:25;97169.50;;;17.01;39.68
70434;BME280;57876;47.792;12.960;2023-02-02T11:12:49;97180.66;;;17.13;39.58
70434;BME280;57876;47.792;12.960;2023-02-02T11:15:28;97167.28;;;17.12;40.22
70434;BME280;57876;47.792;12.960;2023-02-02T11:17:53;97178.72;;;17.14;39.72
70434;BME280;57876;47.792;12.960;2023-02-02T11:20:31;97185.31;;;17.13;39.96
70434;BME280;57876;47.792;12.960;2023-02-02T11:23:01;97175.50;;;17.12;40.00
70434;BME280;57876;47.792;12.960;2023-02-02T11:25:30;97162.16;;;17.10;40.04
70434;BME280;57876;47.792;12.960;2023-02-02T11:27:57;97171.97;;;17.11;39.83
70434;BME280;57876;47.792;12.960;2023-02-02T11:30:39;97173.88;;;17.11;40.10
70434;BME280;57876;47.792;12.960;2023-02-02T11:33:42;97166.34;;;17.16;40.16
70434;BME280;57876;47.792;12.960;2023-02-02T11:36:27;97164.91;;;17.19;40.26
70434;BME280;57876;47.792;12.960;2023-02-02T11:39:14;97169.06;;;17.16;40.08
70434;BME280;57876;47.792;12.960;2023-02-02T11:41:39;97154.44;;;17.12;40.19
70434;BME280;57876;47.792;12.960;2023-02-02T11:44:05;97151.06;;;17.15;40.37
70434;BME280;57876;47.792;12.960;2023-02-02T11:46:31;97141.09;;;17.11;40.56
70434;BME280;57876;47.792;12.960;2023-02-02T11:49:01;97170.38;;;17.19;40.22
70434;BME280;57876;47.792;12.960;2023-02-02T11:51:28;97119.56;;;17.18;40.58
70434;BME280;57876;47.792;12.960;2023-02-02T11:54:00;97157.84;;;17.18;40.36
70434;BME280;57876;47.792;12.960;2023-02-02T11:56:26;97140.59;;;17.17;40.52
70434;BME280;57876;47.792;12.960;2023-02-02T11:58:57;97138.53;;;17.23;40.28
70434;BME280;57876;47.792;12.960;2023-02-02T12:01:33;97123.56;;;17.21;40.51
70434;BME280;57876;47.792;12.960;2023-02-02T12:04:22;97132.44;;;17.26;40.47
70434;BME280;57876;47.792;12.960;2023-02-02T12:06:47;97130.66;;;17.22;40.29
70434;BME280;57876;47.792;12.960;2023-02-02T12:09:22;97120.53;;;17.22;40.59
70434;BME280;57876;47.792;12.960;2023-02-02T12:11:53;97140.50;;;17.31;40.54
70434;BME280;57876;47.792;12.960;2023-02-02T12:20:00;97131.16;;;17.32;40.35
70434;BME280;57876;47.792;12.960;2023-02-02T12:25:22;97133.41;;;17.22;40.44
70434;BME280;57876;47.792;12.960;2023-02-02T12:27:58;97139.81;;;17.17;40.57
70434;BME280;57876;47.792;12.960;2023-02-02T12:30:44;97121.81;;;17.16;40.24
70434;BME280;57876;47.792;12.960;2023-02-02T12:41:48;97150.59;;;17.13;40.44
70434;BME280;57876;47.792;12.960;2023-02-02T12:44:31;97126.94;;;17.09;40.18
70434;BME280;57876;47.792;12.960;2023-02-02T12:55:20;97143.34;;;17.09;40.26
70434;BME280;57876;47.792;12.960;2023-02-02T12:57:55;97135.94;;;17.09;40.09
70434;BME280;57876;47.792;12.960;2023-02-02T13:08:55;97142.84;;;17.07;40.01
70434;BME280;57876;47.792;12.960;2023-02-02T13:11:34;97145.56;;;17.07;39.80
70434;BME280;57876;47.792;12.960;2023-02-02T13:14:07;97144.78;;;17.06;40.01
70434;BME280;57876;47.792;12.960;2023-02-02T13:16:35;97157.16;;;17.04;39.78
70434;BME280;57876;47.792;12.960;2023-02-02T13:19:04;97161.00;;;17.03;40.05
70434;BME280;57876;47.792;12.960;2023-02-02T13:21:31;97152.47;;;17.04;39.84
70434;BME280;57876;47.792;12.960;2023-02-02T13:23:57;97157.94;;;17.04;40.27
70434;BME280;57876;47.792;12.960;2023-02-02T13:26:26;97169.22;;;17.03;40.07
70434;BME280;57876;47.792;12.960;2023-02-02T13:29:13;97159.38;;;17.02;40.20
70434;BME280;57876;47.792;12.960;2023-02-02T13:32:05;97174.97;;;17.01;39.92
70434;BME280;57876;47.792;12.960;2023-02-02T13:37:36;97172.56;;;17.00;39.91
70434;BME280;57876;47.792;12.960;2023-02-02T13:48:07;97172.38;;;16.96;39.88
70434;BME280;57876;47.792;12.960;2023-02-02T13:57:03;97180.59;;;16.96;39.85
70434;BME280;57876;47.792;12.960;2023-02-02T13:59:50;97176.56;;;16.93;39.59
70434;BME280;57876;47.792;12.960;2023-02-02T14:02:37;97169.16;;;16.94;40.10
70434;BME280;57876;47.792;12.960;2023-02-02T14:05:05;97188.63;;;16.92;40.25
70434;BME280;57876;47.792;12.960;2023-02-02T14:09:59;97193.44;;;16.95;40.24
70434;BME280;57876;47.792;12.960;2023-02-02T14:12:29;97175.44;;;16.94;39.86
70434;BME280;57876;47.792;12.960;2023-02-02T14:14:54;97173.53;;;16.95;39.85
70434;BME280;57876;47.792;12.960;2023-02-02T14:19:51;97183.16;;;16.92;39.92
70434;BME280;57876;47.792;12.960;2023-02-02T14:22:18;97188.63;;;16.92;40.07
70434;BME280;57876;47.792;12.960;2023-02-02T14:24:44;97194.56;;;16.94;39.89
70434;BME280;57876;47.792;12.960;2023-02-02T14:29:34;97193.44;;;16.95;39.73
70434;BME280;57876;47.792;12.960;2023-02-02T14:37:08;97209.03;;;16.95;39.94
70434;BME280;57876;47.792;12.960;2023-02-02T14:45:43;97196.81;;;16.92;40.04